メインページ
METAR-TAF:

METAR-TAF

空港 :

関西国際空港, 日本

緯度: 34-25N, 経度: 135-15E, 海抜: 5m

現時点の気象観測

当レポートは21分前の07:00(UTC)に作成
西の風 9kt
気温 32°C
湿度 56%
気圧 1007 hPa
視程10km以上
高度3000ftの雲はほとんどない
高度4500ftの雲は散在している
千切れ雲あり

METAR: RJBB 200700Z 26009KT 9999 FEW030 SCT045 BKN/// 32/22 Q1007 NOSIG

時間: 16:21 (07:21 UTC)

予報

当レポートは2時間14分前の05:07(UTC)に作成
予報は20日の 06時(UTC)から 21日の 12時(UTC)まで有効
南/南西の風 10kt
視程10km以上
高度2500ftの雲はほとんどない
高度5000ftの千切れ雲あり
20日の 13時(UTC)から 20日の 15時(UTC)まで徐々に
東/北東の風 8kt
21日の 03時(UTC)から 21日の 06時(UTC)まで徐々に
西の風 4kt

TAF: RJBB 200507Z 2006/2112 21010KT 9999 FEW025 BKN050 BECMG 2013/2015 07008KT BECMG 2103/2106 26004KT

4,000以上の空港の気象観測と天気予報(METAR報とTAF報)

利用可能な観測所は地図上に黄色い丸と赤い丸で示す。

丸の上にカーソルを重ねると観測所名を参照できる。

次にクリックすると気象観測と天気予報を参照できる。

マップの切り替え:黒色「×」印の緑ボタンをクリックして拡大、「-」印の緑ボタンをクリックして縮小、緑色の三角印をクリックして隣りの地図に切り替え


METAR-TAF: